Terminal Aerodrome Forecast
Issued by NWS

Home | Current Version | Previous Version | Text Only | Print | Product List | Glossary On
Versions: 1 2 3 4 5 6 7 8 9 10 11 12 13 14 15 16 17 18 19 20 21 22 23 24 25 26 27 28 29 30 31 32 33 34 35 36 37 38 39 40 41 42 43 44 45 46 47 48
751
FTUS44 KHGX 202339
TAFUTS
TAF
KUTS 202339Z 2100/2124 15007KT P6SM SCT015 BKN025
     FM210300 16010KT 6SM BR VCSH BKN012 OVC020
     FM210600 16010KT 5SM BR VCSH SCT007 OVC012
     FM211000 17009KT 4SM BR OVC007
     FM211600 17010KT P6SM SCT010 OVC015
     FM211900 17013G22KT P6SM VCSH BKN025 BKN040=

USA.gov is the U.S. government's official web portal to all federal, state and local government web resources and services.